LPHR/HOR METAR and TAF weather

Enter ICAO airport designator
Station Type Date Time Source
LPHR METAR 2019/12/10 19:30 UTC NOAA

LPHR 101930Z 07014KT 030V110 9999 FEW025 BKN040 14/06 Q1037


Station Type Date Time Source
LPHR Decoded METAR 2019/12/10 19:30 UTC NOAA

Horta / Castelo Branco Acores , Portugal (LPHR) 38-31N 028-43W 41M
Dec 10, 2019 - 02:30 PM EST / 2019.12.10 1930 UTC
Wind: from the ENE (070 degrees) at 16 MPH (14 KT) (direction variable):0
Visibility: greater than 7 mile(s):0
Sky conditions: mostly cloudy
Temperature: 57 F (14 C)
Dew Point: 42 F (6 C)
Relative Humidity: 58%
Pressure (altimeter): 30.62 in. Hg (1037 hPa)
ob: LPHR 101930Z 07014KT 030V110 9999 FEW025 BKN040 14/06 Q1037
cycle: 19

Station Type Date Time Source
LPHR TAF 2018/09/06 09:00 UTC NOAA

TAF LPHR 060800Z 0609/0618 12010KT 9999 SCT018 SCT040 PROB30
TEMPO 0609/0618 5000 SHRA BKN015 FEW018CB
BECMG 0610/0612 18010KT

Example: see airport list